createdAt,value
2023-01-26T00:00:09.578Z,66.65
2023-01-26T00:02:38.363Z,67.26
2023-01-26T00:05:08.742Z,67.27
2023-01-26T00:07:42.690Z,67.10
2023-01-26T00:10:12.334Z,66.56
2023-01-26T00:12:40.600Z,66.45
2023-01-26T00:15:09.508Z,67.13
2023-01-26T00:17:38.326Z,66.58
2023-01-26T00:20:13.673Z,67.05
2023-01-26T00:22:41.831Z,66.67
2023-01-26T00:25:10.639Z,67.57
2023-01-26T00:27:38.675Z,67.45
2023-01-26T00:30:12.277Z,67.22
2023-01-26T00:32:40.470Z,67.36
2023-01-26T00:35:10.607Z,67.30
2023-01-26T00:37:43.348Z,67.06
2023-01-26T00:40:12.862Z,67.06
2023-01-26T00:42:41.486Z,66.71
2023-01-26T00:45:10.746Z,66.90
2023-01-26T00:47:39.587Z,67.74
2023-01-26T00:50:11.050Z,66.63
2023-01-26T00:52:39.412Z,66.94
2023-01-26T00:55:08.339Z,66.26
2023-01-26T00:57:36.407Z,66.23
2023-01-26T01:00:06.165Z,66.10
2023-01-26T01:02:34.197Z,66.05
2023-01-26T01:05:02.227Z,66.28
2023-01-26T01:07:31.594Z,66.62
2023-01-26T01:10:02.081Z,66.87
2023-01-26T01:12:30.152Z,66.98
2023-01-26T01:14:58.238Z,66.51
2023-01-26T01:17:26.687Z,67.16
2023-01-26T01:19:54.702Z,67.24
2023-01-26T01:22:23.035Z,67.55
2023-01-26T01:24:52.422Z,66.47
2023-01-26T01:27:20.459Z,66.94
2023-01-26T01:29:50.376Z,66.69
2023-01-26T01:32:18.541Z,65.95
2023-01-26T01:34:48.381Z,66.76
2023-01-26T01:37:16.985Z,66.31
2023-01-26T01:39:45.062Z,66.78
2023-01-26T01:42:14.471Z,66.27
2023-01-26T01:44:44.765Z,67.09
2023-01-26T01:47:20.379Z,65.99
2023-01-26T01:49:51.899Z,66.30
2023-01-26T01:52:27.357Z,66.01
2023-01-26T01:55:02.081Z,66.45
2023-01-26T01:57:44.756Z,66.50
2023-01-26T02:00:16.422Z,66.42
2023-01-26T02:03:06.961Z,67.02
2023-01-26T02:05:41.277Z,66.86
2023-01-26T02:08:12.459Z,66.70
2023-01-26T02:10:40.828Z,66.57
2023-01-26T02:13:10.568Z,66.50
2023-01-26T02:15:39.300Z,67.02
2023-01-26T02:18:08.135Z,66.52
2023-01-26T02:20:46.110Z,67.19
2023-01-26T02:23:32.221Z,66.87
2023-01-26T02:26:11.387Z,66.93
2023-01-26T02:28:41.221Z,67.36
2023-01-26T02:31:10.857Z,67.01
2023-01-26T02:33:39.124Z,66.42
2023-01-26T02:36:17.010Z,66.39
2023-01-26T02:38:52.905Z,65.85
2023-01-26T02:41:36.332Z,66.46
2023-01-26T02:44:08.004Z,66.97
2023-01-26T02:46:36.263Z,66.60
2023-01-26T02:49:22.759Z,66.69
2023-01-26T02:51:50.858Z,66.69
2023-01-26T02:54:33.300Z,65.94
2023-01-26T02:57:03.778Z,66.14
2023-01-26T02:59:31.854Z,67.16
2023-01-26T03:02:00.170Z,67.00
2023-01-26T03:04:28.626Z,66.72
2023-01-26T03:06:56.787Z,66.98
2023-01-26T03:09:24.889Z,66.37
2023-01-26T03:11:53.213Z,66.35
2023-01-26T03:14:22.560Z,66.27
2023-01-26T03:16:50.847Z,67.05
2023-01-26T03:19:36.520Z,67.37
2023-01-26T03:22:28.975Z,66.21
2023-01-26T03:25:15.734Z,66.70
2023-01-26T03:27:47.966Z,66.25
2023-01-26T03:30:20.186Z,67.38
2023-01-26T03:32:50.079Z,67.36
2023-01-26T03:35:22.482Z,67.21
2023-01-26T03:37:54.551Z,66.49
2023-01-26T03:40:53.393Z,66.25
2023-01-26T03:43:39.616Z,65.97
2023-01-26T03:46:28.028Z,66.67
2023-01-26T03:49:13.830Z,66.43
2023-01-26T03:51:59.851Z,66.13
2023-01-26T03:54:45.555Z,65.98
2023-01-26T03:57:13.859Z,65.93
2023-01-26T03:59:42.244Z,65.46
2023-01-26T04:02:37.315Z,66.09
2023-01-26T04:05:24.615Z,66.23
2023-01-26T04:08:22.839Z,66.32
2023-01-26T04:10:57.499Z,66.49
2023-01-26T04:13:44.740Z,66.17
2023-01-26T04:16:38.741Z,66.03
2023-01-26T04:19:26.331Z,66.58
2023-01-26T04:21:54.357Z,65.57
2023-01-26T04:24:23.044Z,66.21
2023-01-26T04:26:55.608Z,66.00
2023-01-26T04:29:27.685Z,67.38
2023-01-26T04:31:56.414Z,67.26
2023-01-26T04:34:26.097Z,66.99
2023-01-26T04:36:54.536Z,67.31
2023-01-26T04:39:25.795Z,67.03
2023-01-26T04:41:56.872Z,67.97
2023-01-26T04:44:30.211Z,68.80
2023-01-26T04:46:58.900Z,69.05
2023-01-26T04:49:28.304Z,69.37
2023-01-26T04:51:56.764Z,69.54
2023-01-26T04:54:25.004Z,67.85
2023-01-26T04:56:53.693Z,67.54
2023-01-26T04:59:22.240Z,67.06
2023-01-26T05:01:50.276Z,66.79
2023-01-26T05:04:18.342Z,66.66
2023-01-26T05:06:49.414Z,67.30
2023-01-26T05:09:17.637Z,67.18
2023-01-26T05:11:47.186Z,67.29
2023-01-26T05:14:40.790Z,66.85
2023-01-26T05:17:19.194Z,67.20
2023-01-26T05:19:51.964Z,67.76
2023-01-26T05:22:38.884Z,67.32
2023-01-26T05:25:25.871Z,67.66
2023-01-26T05:28:00.553Z,67.35
2023-01-26T05:30:29.372Z,66.70
2023-01-26T05:33:02.927Z,67.05
2023-01-26T05:35:31.067Z,67.54
2023-01-26T05:38:01.141Z,66.88
2023-01-26T05:40:32.031Z,67.22
2023-01-26T05:43:00.900Z,67.49
2023-01-26T05:45:47.757Z,66.61
2023-01-26T05:48:17.115Z,67.17
2023-01-26T05:50:46.396Z,67.19
2023-01-26T05:53:24.559Z,66.43
2023-01-26T05:55:52.784Z,66.87
2023-01-26T05:58:23.876Z,66.70
2023-01-26T06:00:52.313Z,66.98
2023-01-26T06:03:26.120Z,67.36
2023-01-26T06:05:55.468Z,66.89
2023-01-26T06:08:50.778Z,67.59
2023-01-26T06:11:41.440Z,67.20
2023-01-26T06:14:15.749Z,66.82
2023-01-26T06:16:44.445Z,67.08
2023-01-26T06:19:13.061Z,67.00
2023-01-26T06:21:42.484Z,66.78
2023-01-26T06:24:12.219Z,66.43
2023-01-26T06:26:40.499Z,66.46
2023-01-26T06:29:08.963Z,66.71
2023-01-26T06:31:38.063Z,66.21
2023-01-26T06:34:07.141Z,65.82
2023-01-26T06:36:39.514Z,66.00
2023-01-26T06:39:12.398Z,66.26
2023-01-26T06:41:40.899Z,66.10
2023-01-26T06:44:10.099Z,66.18
2023-01-26T06:46:38.603Z,67.62
2023-01-26T06:49:07.220Z,66.85
2023-01-26T06:51:56.363Z,66.97
2023-01-26T06:54:34.698Z,67.54
2023-01-26T06:57:21.472Z,66.86
2023-01-26T07:00:02.302Z,67.79
2023-01-26T07:02:45.958Z,66.92
2023-01-26T07:05:14.050Z,66.35
2023-01-26T07:07:42.089Z,66.49
2023-01-26T07:10:13.228Z,66.05
2023-01-26T07:12:43.543Z,66.00
2023-01-26T07:15:13.847Z,66.13
2023-01-26T07:17:41.876Z,65.56
2023-01-26T07:20:12.188Z,66.14
2023-01-26T07:22:40.381Z,65.84
2023-01-26T07:25:12.974Z,65.43
2023-01-26T07:27:42.440Z,65.38
2023-01-26T07:30:13.825Z,65.95
2023-01-26T07:32:42.230Z,65.61
2023-01-26T07:35:13.642Z,66.04
2023-01-26T07:37:41.685Z,65.64
2023-01-26T07:40:11.776Z,66.43
2023-01-26T07:42:40.159Z,65.46
2023-01-26T07:45:23.686Z,66.00
2023-01-26T07:47:53.190Z,65.99
2023-01-26T07:50:21.724Z,65.17
2023-01-26T07:52:52.522Z,65.73
2023-01-26T07:55:21.438Z,65.56
2023-01-26T07:57:49.559Z,65.17
2023-01-26T08:00:19.294Z,65.13
2023-01-26T08:02:52.536Z,64.79
2023-01-26T08:05:20.560Z,65.05
2023-01-26T08:07:48.781Z,65.43
2023-01-26T08:10:17.438Z,65.22
2023-01-26T08:12:45.439Z,65.05
2023-01-26T08:15:13.612Z,65.37
2023-01-26T08:17:41.605Z,65.07
2023-01-26T08:20:14.158Z,64.56
2023-01-26T08:22:43.043Z,64.47
2023-01-26T08:25:15.594Z,64.89
2023-01-26T08:27:43.619Z,64.47
2023-01-26T08:30:13.873Z,64.51
2023-01-26T08:32:42.316Z,64.64
2023-01-26T08:35:11.913Z,64.89
2023-01-26T08:37:40.053Z,64.63
2023-01-26T08:40:10.714Z,65.17
2023-01-26T08:42:38.897Z,64.35
2023-01-26T08:45:08.105Z,64.65
2023-01-26T08:47:36.201Z,64.20
2023-01-26T08:50:05.087Z,64.52
2023-01-26T08:52:34.433Z,64.05
2023-01-26T08:55:03.275Z,63.99
2023-01-26T08:57:31.275Z,64.03
2023-01-26T08:59:59.342Z,63.82
2023-01-26T09:02:27.416Z,63.62
2023-01-26T09:04:55.557Z,63.70
2023-01-26T09:07:23.603Z,63.79
2023-01-26T09:09:52.987Z,64.13
2023-01-26T09:12:21.029Z,64.18
2023-01-26T09:14:49.037Z,63.58
2023-01-26T09:17:18.205Z,64.83
2023-01-26T09:19:46.225Z,65.14
2023-01-26T09:22:14.315Z,64.48
2023-01-26T09:24:42.335Z,64.41
2023-01-26T09:27:11.719Z,64.15
2023-01-26T09:29:39.730Z,63.94
2023-01-26T09:32:07.785Z,64.56
2023-01-26T09:34:35.859Z,64.25
2023-01-26T09:37:03.899Z,64.12
2023-01-26T09:39:31.891Z,64.30
2023-01-26T09:42:28.300Z,64.25
2023-01-26T09:45:08.136Z,64.40
2023-01-26T09:48:03.869Z,64.01
2023-01-26T09:50:37.173Z,64.36
2023-01-26T09:53:13.795Z,63.49
2023-01-26T09:55:43.256Z,63.86
2023-01-26T09:58:20.661Z,64.09
2023-01-26T10:00:51.652Z,63.75
2023-01-26T10:03:27.823Z,63.88
2023-01-26T10:06:01.932Z,63.53
2023-01-26T10:09:07.629Z,63.58
2023-01-26T10:11:41.165Z,62.93
2023-01-26T10:14:16.623Z,64.02
2023-01-26T10:16:48.186Z,63.45
2023-01-26T10:19:26.808Z,63.95
2023-01-26T10:22:00.145Z,63.68
2023-01-26T10:24:28.835Z,63.64
2023-01-26T10:26:59.137Z,64.78
2023-01-26T10:29:28.602Z,63.72
2023-01-26T10:31:56.690Z,63.38
2023-01-26T10:34:27.432Z,63.64
2023-01-26T10:37:03.239Z,63.58
2023-01-26T10:39:31.260Z,64.11
2023-01-26T10:42:01.754Z,64.57
2023-01-26T10:44:35.740Z,64.96
2023-01-26T10:47:07.868Z,64.21
2023-01-26T10:49:35.940Z,64.11
2023-01-26T10:52:15.593Z,64.77
2023-01-26T10:54:44.698Z,65.00
2023-01-26T10:57:29.019Z,64.92
2023-01-26T11:00:01.513Z,65.01
2023-01-26T11:02:32.066Z,65.74
2023-01-26T11:05:21.706Z,65.41
2023-01-26T11:07:54.237Z,66.74
2023-01-26T11:10:31.573Z,66.50
2023-01-26T11:13:18.101Z,65.50
2023-01-26T11:15:50.263Z,66.49
2023-01-26T11:18:33.756Z,66.48
2023-01-26T11:21:08.278Z,65.87
2023-01-26T11:23:50.164Z,66.43
2023-01-26T11:26:53.171Z,66.76
2023-01-26T11:29:52.814Z,66.93
2023-01-26T11:32:35.898Z,65.42
2023-01-26T11:35:17.058Z,65.62
2023-01-26T11:37:48.589Z,65.95
2023-01-26T11:40:32.051Z,66.05
2023-01-26T11:43:28.263Z,65.41
2023-01-26T11:46:26.741Z,66.07
2023-01-26T11:49:13.313Z,66.60
2023-01-26T11:51:58.092Z,66.54
2023-01-26T11:54:45.313Z,67.74
2023-01-26T11:57:27.664Z,68.22
2023-01-26T12:00:04.022Z,68.12
2023-01-26T12:02:43.219Z,67.90
2023-01-26T12:05:20.877Z,67.90
2023-01-26T12:07:57.000Z,67.53
2023-01-26T12:10:30.744Z,66.72
2023-01-26T12:13:09.043Z,66.88
2023-01-26T12:15:40.633Z,66.84
2023-01-26T12:18:19.343Z,66.99
2023-01-26T12:20:56.584Z,66.59
2023-01-26T12:23:36.639Z,66.67
2023-01-26T12:26:11.752Z,65.74
2023-01-26T12:28:48.934Z,66.38
2023-01-26T12:31:24.793Z,66.45
2023-01-26T12:33:56.902Z,67.07
2023-01-26T12:36:49.065Z,67.80
2023-01-26T12:39:27.356Z,67.44
2023-01-26T12:42:19.732Z,67.48
2023-01-26T12:44:54.196Z,67.08
2023-01-26T12:47:31.624Z,66.56
2023-01-26T12:50:05.356Z,66.42
2023-01-26T12:52:43.491Z,66.21
2023-01-26T12:55:17.876Z,65.92
2023-01-26T12:57:52.667Z,66.52
2023-01-26T13:00:25.480Z,67.02
2023-01-26T13:02:57.766Z,67.18
2023-01-26T13:05:30.342Z,67.49
2023-01-26T13:07:59.977Z,68.28
2023-01-26T13:10:44.034Z,67.46
2023-01-26T13:13:31.549Z,66.61
2023-01-26T13:16:34.760Z,66.84
2023-01-26T13:19:03.766Z,67.67
2023-01-26T13:21:44.865Z,67.90
2023-01-26T13:24:46.977Z,67.85
2023-01-26T13:27:33.792Z,67.34
2023-01-26T13:30:02.212Z,66.74
2023-01-26T13:33:09.924Z,66.66
2023-01-26T13:35:39.001Z,66.60
2023-01-26T13:38:19.040Z,67.00
2023-01-26T13:40:50.873Z,66.72
2023-01-26T13:43:29.201Z,66.13
2023-01-26T13:46:18.699Z,67.25
2023-01-26T13:48:49.805Z,67.35
2023-01-26T13:51:21.640Z,66.86
2023-01-26T13:53:59.909Z,66.58
2023-01-26T13:56:33.692Z,66.68
2023-01-26T13:59:11.895Z,66.86
2023-01-26T14:01:45.909Z,66.52
2023-01-26T14:04:20.125Z,66.69
2023-01-26T14:06:53.658Z,67.62
2023-01-26T14:09:21.995Z,66.89
2023-01-26T14:11:59.560Z,67.18
2023-01-26T14:14:30.877Z,66.94
2023-01-26T14:16:59.771Z,67.24
2023-01-26T14:19:29.495Z,66.33
2023-01-26T14:22:00.062Z,67.81
2023-01-26T14:24:36.103Z,67.14
2023-01-26T14:27:05.525Z,67.26
2023-01-26T14:29:40.217Z,66.63
2023-01-26T14:32:17.381Z,66.70
2023-01-26T14:34:54.037Z,66.77
2023-01-26T14:37:22.526Z,66.91
2023-01-26T14:39:51.280Z,67.40
2023-01-26T14:42:22.101Z,67.24
2023-01-26T14:44:50.147Z,66.55
2023-01-26T14:47:22.783Z,66.37
2023-01-26T14:49:57.275Z,66.43
2023-01-26T14:52:28.596Z,65.85
2023-01-26T14:55:00.390Z,66.40
2023-01-26T14:57:31.827Z,66.16
2023-01-26T15:00:02.548Z,65.87
2023-01-26T15:02:38.058Z,65.89
2023-01-26T15:05:16.987Z,65.71
2023-01-26T15:07:47.191Z,65.63
2023-01-26T15:10:36.672Z,66.17
2023-01-26T15:13:19.284Z,66.07
2023-01-26T15:15:49.644Z,66.59
2023-01-26T15:18:22.213Z,65.93
2023-01-26T15:21:00.716Z,65.93
2023-01-26T15:23:31.906Z,66.53
2023-01-26T15:26:08.210Z,66.47
2023-01-26T15:28:38.782Z,65.87
2023-01-26T15:31:08.182Z,66.18
2023-01-26T15:33:45.216Z,66.09
2023-01-26T15:36:34.520Z,66.21
2023-01-26T15:39:13.114Z,66.49
2023-01-26T15:41:41.696Z,66.76
2023-01-26T15:44:17.081Z,66.29
2023-01-26T15:46:45.884Z,66.62
2023-01-26T15:49:14.546Z,65.87
2023-01-26T15:51:42.771Z,65.93
2023-01-26T15:54:12.313Z,66.19
2023-01-26T15:56:40.403Z,66.52
2023-01-26T15:59:08.398Z,66.37
2023-01-26T16:01:37.881Z,66.66
2023-01-26T16:04:06.250Z,65.91
2023-01-26T16:06:35.854Z,65.54
2023-01-26T16:09:04.038Z,65.89
2023-01-26T16:11:36.094Z,65.78
2023-01-26T16:14:04.599Z,65.45
2023-01-26T16:16:33.682Z,66.06
2023-01-26T16:19:03.060Z,65.72
2023-01-26T16:21:39.442Z,65.69
2023-01-26T16:24:11.052Z,65.63
2023-01-26T16:26:39.208Z,66.62
2023-01-26T16:29:08.048Z,66.31
2023-01-26T16:31:36.813Z,65.97
2023-01-26T16:34:06.253Z,66.07
2023-01-26T16:36:34.431Z,65.78
2023-01-26T16:39:03.072Z,65.81
2023-01-26T16:41:33.580Z,65.92
2023-01-26T16:44:03.869Z,66.09
2023-01-26T16:46:32.137Z,66.12
2023-01-26T16:49:00.281Z,65.68
2023-01-26T16:51:33.519Z,65.95
2023-01-26T16:54:01.637Z,65.28
2023-01-26T16:56:29.825Z,65.33
2023-01-26T16:58:57.936Z,65.84
2023-01-26T17:01:28.743Z,65.90
2023-01-26T17:03:57.591Z,65.81
2023-01-26T17:06:25.994Z,65.51
2023-01-26T17:08:56.567Z,65.79
2023-01-26T17:11:28.113Z,65.70
2023-01-26T17:13:56.957Z,65.71
2023-01-26T17:16:27.047Z,65.80
2023-01-26T17:18:55.182Z,66.04
2023-01-26T17:21:24.009Z,65.92
2023-01-26T17:23:53.876Z,65.98
2023-01-26T17:26:23.635Z,65.90
2023-01-26T17:28:55.740Z,66.02
2023-01-26T17:31:25.798Z,65.70
2023-01-26T17:33:55.592Z,65.64
2023-01-26T17:36:24.770Z,65.47
2023-01-26T17:38:53.266Z,65.67
2023-01-26T17:41:22.907Z,65.76
2023-01-26T17:43:51.318Z,65.45
2023-01-26T17:46:22.328Z,65.07
2023-01-26T17:48:51.107Z,65.92
2023-01-26T17:54:14.005Z,65.57
2023-01-26T17:56:43.868Z,65.20
2023-01-26T17:59:12.037Z,65.51
2023-01-26T18:01:40.139Z,65.31
2023-01-26T18:04:08.235Z,65.85
2023-01-26T18:06:38.508Z,66.15
2023-01-26T18:09:06.750Z,65.98
2023-01-26T18:11:34.773Z,65.54
2023-01-26T18:14:05.487Z,65.41
2023-01-26T18:16:37.736Z,65.44
2023-01-26T18:19:30.776Z,65.80
2023-01-26T18:21:58.827Z,65.02
2023-01-26T18:24:27.037Z,65.57
2023-01-26T18:26:55.233Z,66.01
2023-01-26T18:29:24.685Z,65.43
2023-01-26T18:31:52.793Z,64.96
2023-01-26T18:34:20.902Z,65.27
2023-01-26T18:36:48.982Z,65.74
2023-01-26T18:39:17.659Z,65.67
2023-01-26T18:41:45.677Z,65.49
2023-01-26T18:44:13.690Z,65.70
2023-01-26T18:46:43.183Z,65.13
2023-01-26T18:49:11.572Z,65.42
2023-01-26T18:51:39.628Z,65.30
2023-01-26T18:54:09.571Z,65.31
2023-01-26T18:56:38.138Z,65.71
2023-01-26T18:59:07.544Z,65.94
2023-01-26T19:01:35.969Z,65.26
2023-01-26T19:04:07.172Z,64.61
2023-01-26T19:06:36.281Z,64.94
2023-01-26T19:09:08.109Z,64.90
2023-01-26T19:11:38.946Z,65.44
2023-01-26T19:14:10.172Z,65.73
2023-01-26T19:16:38.478Z,65.46
2023-01-26T19:19:08.148Z,65.41
2023-01-26T19:21:36.173Z,65.96
2023-01-26T19:24:06.048Z,65.74
2023-01-26T19:26:34.518Z,65.60
2023-01-26T19:29:02.645Z,65.32
2023-01-26T19:31:31.991Z,65.31
2023-01-26T19:34:02.450Z,65.45
2023-01-26T19:36:34.438Z,65.14
2023-01-26T19:39:03.322Z,65.64
2023-01-26T19:41:31.858Z,65.69
2023-01-26T19:44:00.826Z,65.87
2023-01-26T19:46:29.014Z,65.60
2023-01-26T19:48:57.088Z,65.37
2023-01-26T19:51:27.191Z,65.28
2023-01-26T19:53:58.736Z,65.27
2023-01-26T19:56:29.356Z,65.48
2023-01-26T19:58:59.890Z,65.30
2023-01-26T20:01:30.136Z,64.96
2023-01-26T20:04:01.392Z,65.25
2023-01-26T20:06:32.345Z,65.45
2023-01-26T20:09:03.434Z,65.67
2023-01-26T20:11:32.431Z,64.93
2023-01-26T20:14:03.016Z,65.47
2023-01-26T20:16:31.992Z,65.28
2023-01-26T20:19:00.482Z,64.89
2023-01-26T20:21:29.211Z,65.29
2023-01-26T20:23:57.377Z,65.17
2023-01-26T20:26:28.433Z,65.27
2023-01-26T20:28:58.434Z,64.72
2023-01-26T20:31:27.595Z,64.91
2023-01-26T20:33:58.187Z,65.34
2023-01-26T20:36:29.220Z,65.32
2023-01-26T20:38:57.961Z,64.71
2023-01-26T20:41:30.021Z,64.74
2023-01-26T20:44:02.032Z,64.54
2023-01-26T20:46:33.188Z,64.67
2023-01-26T20:49:01.514Z,63.99
2023-01-26T20:51:33.605Z,64.44
2023-01-26T20:54:03.040Z,64.26
2023-01-26T20:56:32.501Z,64.98
2023-01-26T20:59:03.522Z,64.54
2023-01-26T21:01:33.685Z,65.32
2023-01-26T21:04:02.326Z,65.23
2023-01-26T21:06:31.277Z,65.07
2023-01-26T21:09:02.234Z,64.71
2023-01-26T21:11:33.171Z,64.08
2023-01-26T21:14:26.587Z,64.37
2023-01-26T21:16:54.694Z,64.52
2023-01-26T21:19:22.803Z,64.81
2023-01-26T21:21:51.258Z,64.80
2023-01-26T21:24:19.372Z,64.85
2023-01-26T21:26:50.233Z,64.69
2023-01-26T21:29:18.279Z,64.56
2023-01-26T21:31:48.699Z,64.89
2023-01-26T21:34:16.756Z,64.71
2023-01-26T21:36:44.867Z,64.37
2023-01-26T21:39:15.458Z,64.19
2023-01-26T21:41:59.274Z,64.43
2023-01-26T21:44:30.470Z,63.86
2023-01-26T21:47:00.519Z,64.15
2023-01-26T21:49:29.465Z,64.36
2023-01-26T21:52:15.453Z,63.65
2023-01-26T21:54:43.491Z,64.76
2023-01-26T21:57:30.658Z,64.20
2023-01-26T22:00:00.113Z,63.98
2023-01-26T22:02:28.396Z,63.73
2023-01-26T22:04:56.675Z,63.89
2023-01-26T22:07:24.645Z,63.98
2023-01-26T22:09:52.651Z,64.06
2023-01-26T22:12:22.858Z,63.79
2023-01-26T22:14:52.570Z,63.97
2023-01-26T22:17:21.932Z,64.03
2023-01-26T22:19:49.959Z,63.64
2023-01-26T22:22:17.982Z,63.79
2023-01-26T22:24:45.964Z,63.79
2023-01-26T22:27:13.961Z,63.14
2023-01-26T22:29:41.957Z,63.52
2023-01-26T22:32:09.946Z,63.42
2023-01-26T22:34:39.317Z,63.68
2023-01-26T22:37:07.311Z,63.49
2023-01-26T22:39:35.355Z,62.95
2023-01-26T22:42:03.312Z,63.22
2023-01-26T22:44:31.365Z,63.23
2023-01-26T22:46:59.343Z,63.21
2023-01-26T22:49:27.337Z,62.74
2023-01-26T22:51:56.874Z,62.38
2023-01-26T22:54:25.985Z,62.60
2023-01-26T22:56:54.282Z,62.12
2023-01-26T22:59:22.334Z,62.31
2023-01-26T23:01:51.307Z,62.54
2023-01-26T23:04:19.399Z,62.52
2023-01-26T23:06:47.471Z,62.57
2023-01-26T23:09:16.853Z,63.22
2023-01-26T23:11:44.887Z,63.50
2023-01-26T23:14:12.913Z,64.71
2023-01-26T23:16:40.954Z,64.50
2023-01-26T23:19:09.358Z,64.62
2023-01-26T23:21:37.431Z,64.54
2023-01-26T23:24:06.069Z,64.64
2023-01-26T23:26:35.573Z,63.95
2023-01-26T23:29:03.662Z,63.99
2023-01-26T23:31:32.517Z,63.89
2023-01-26T23:34:00.846Z,64.59
2023-01-26T23:36:28.971Z,64.19
2023-01-26T23:38:56.971Z,64.60
2023-01-26T23:41:24.986Z,64.50
2023-01-26T23:43:54.392Z,64.36
2023-01-26T23:46:22.496Z,64.14
2023-01-26T23:48:50.523Z,63.88
2023-01-26T23:51:18.556Z,63.75
2023-01-26T23:53:46.578Z,64.05
2023-01-26T23:56:17.417Z,64.00
2023-01-26T23:58:45.745Z,63.32
